createdAt,value
2022-12-06T00:01:34.754Z,2.23
2022-12-06T00:04:07.964Z,2.36
2022-12-06T00:06:48.107Z,2.36
2022-12-06T00:09:24.167Z,2.41
2022-12-06T00:11:52.569Z,2.37
2022-12-06T00:14:20.845Z,2.42
2022-12-06T00:16:48.750Z,2.48
2022-12-06T00:19:18.805Z,2.12
2022-12-06T00:21:47.334Z,2.40
2022-12-06T00:24:16.859Z,2.35
2022-12-06T00:26:46.597Z,2.34
2022-12-06T00:29:17.162Z,2.28
2022-12-06T00:31:44.907Z,2.31
2022-12-06T00:34:12.214Z,2.18
2022-12-06T00:36:41.124Z,2.31
2022-12-06T00:39:14.717Z,2.10
2022-12-06T00:41:42.699Z,2.08
2022-12-06T00:44:10.940Z,2.27
2022-12-06T00:46:38.988Z,2.31
2022-12-06T00:49:07.619Z,2.24
2022-12-06T00:51:36.358Z,2.23
2022-12-06T00:54:04.437Z,2.34
2022-12-06T00:56:32.293Z,2.24
2022-12-06T00:58:59.593Z,2.30
2022-12-06T01:01:31.231Z,2.14
2022-12-06T01:04:01.684Z,2.13
2022-12-06T01:06:31.867Z,2.18
2022-12-06T01:09:01.684Z,2.18
2022-12-06T01:11:29.906Z,2.14
2022-12-06T01:13:57.800Z,2.17
2022-12-06T01:16:28.460Z,2.32
2022-12-06T01:18:58.613Z,2.39
2022-12-06T01:21:26.984Z,2.18
2022-12-06T01:23:54.523Z,2.14
2022-12-06T01:26:30.670Z,2.13
2022-12-06T01:28:59.334Z,2.00
2022-12-06T01:31:30.903Z,1.97
2022-12-06T01:34:03.086Z,2.09
2022-12-06T01:36:30.414Z,1.94
2022-12-06T01:39:01.103Z,2.13
2022-12-06T01:41:28.581Z,2.02
2022-12-06T01:43:56.655Z,2.09
2022-12-06T01:46:30.171Z,2.03
2022-12-06T01:49:12.777Z,1.88
2022-12-06T01:51:46.147Z,1.95
2022-12-06T01:54:16.301Z,1.82
2022-12-06T01:56:44.492Z,1.86
2022-12-06T01:59:12.848Z,1.96
2022-12-06T02:01:40.837Z,2.18
2022-12-06T02:04:09.158Z,1.95
2022-12-06T02:06:39.007Z,1.87
2022-12-06T02:09:07.882Z,1.94
2022-12-06T02:11:35.956Z,1.93
2022-12-06T02:14:05.802Z,1.75
2022-12-06T02:16:42.147Z,1.90
2022-12-06T02:19:35.751Z,1.95
2022-12-06T02:22:17.621Z,1.92
2022-12-06T02:25:03.105Z,1.91
2022-12-06T02:27:36.577Z,1.86
2022-12-06T02:30:27.757Z,1.75
2022-12-06T02:33:01.503Z,1.80
2022-12-06T02:35:48.347Z,1.70
2022-12-06T02:38:46.995Z,1.69
2022-12-06T02:41:44.104Z,1.75
2022-12-06T02:44:24.506Z,1.54
2022-12-06T02:46:55.592Z,1.54
2022-12-06T02:49:26.753Z,1.46
2022-12-06T02:51:54.827Z,1.43
2022-12-06T02:54:23.714Z,1.60
2022-12-06T02:56:51.068Z,1.51
2022-12-06T02:59:18.411Z,1.53
2022-12-06T03:01:50.094Z,1.63
2022-12-06T03:04:46.574Z,1.64
2022-12-06T03:07:25.910Z,1.85
2022-12-06T03:10:15.976Z,1.69
2022-12-06T03:13:07.367Z,1.81
2022-12-06T03:16:00.230Z,1.86
2022-12-06T03:18:39.566Z,1.92
2022-12-06T03:21:10.660Z,1.90
2022-12-06T03:23:42.326Z,1.80
2022-12-06T03:26:13.605Z,1.80
2022-12-06T03:28:42.674Z,1.90
2022-12-06T03:31:12.964Z,1.89
2022-12-06T03:33:45.675Z,1.80
2022-12-06T03:36:15.100Z,1.96
2022-12-06T03:39:16.298Z,1.94
2022-12-06T03:41:50.107Z,1.98
2022-12-06T03:44:17.594Z,1.80
2022-12-06T03:46:49.530Z,1.95
2022-12-06T03:49:20.738Z,2.17
2022-12-06T03:51:48.525Z,2.05
2022-12-06T03:54:16.300Z,1.88
2022-12-06T03:56:43.702Z,1.86
2022-12-06T03:59:11.813Z,2.02
2022-12-06T04:01:39.815Z,1.98
2022-12-06T04:04:07.332Z,2.10
2022-12-06T04:06:34.771Z,2.00
2022-12-06T04:09:20.550Z,1.81
2022-12-06T04:11:47.863Z,1.86
2022-12-06T04:14:15.376Z,1.87
2022-12-06T04:17:01.314Z,1.87
2022-12-06T04:19:28.721Z,2.11
2022-12-06T04:22:14.528Z,2.24
2022-12-06T04:24:41.826Z,2.12
2022-12-06T04:27:27.831Z,2.29
2022-12-06T04:30:14.106Z,2.15
2022-12-06T04:33:00.316Z,2.20
2022-12-06T04:35:46.183Z,2.14
2022-12-06T04:38:32.201Z,2.43
2022-12-06T04:40:59.478Z,2.23
2022-12-06T04:43:45.053Z,2.21
2022-12-06T04:46:15.700Z,2.01
2022-12-06T04:48:43.066Z,2.07
2022-12-06T04:51:13.014Z,2.28
2022-12-06T04:53:40.437Z,2.00
2022-12-06T04:56:08.176Z,2.23
2022-12-06T04:58:35.598Z,2.23
2022-12-06T05:01:03.563Z,2.34
2022-12-06T05:03:31.048Z,2.34
2022-12-06T05:05:58.487Z,2.27
2022-12-06T05:08:25.872Z,2.44
2022-12-06T05:10:53.217Z,2.47
2022-12-06T05:13:21.370Z,2.45
2022-12-06T05:16:06.699Z,2.35
2022-12-06T05:18:34.494Z,2.50
2022-12-06T05:21:07.399Z,2.47
2022-12-06T05:23:35.511Z,2.54
2022-12-06T05:26:06.015Z,2.33
2022-12-06T05:28:34.853Z,2.45
2022-12-06T05:31:02.537Z,2.60
2022-12-06T05:33:29.913Z,2.60
2022-12-06T05:35:57.814Z,2.32
2022-12-06T05:38:25.905Z,2.63
2022-12-06T05:40:53.195Z,2.64
2022-12-06T05:43:20.478Z,2.56
2022-12-06T05:45:53.354Z,2.59
2022-12-06T05:48:21.018Z,2.54
2022-12-06T05:50:49.207Z,2.85
2022-12-06T05:53:17.430Z,3.17
2022-12-06T05:55:44.793Z,3.06
2022-12-06T05:58:13.771Z,2.96
2022-12-06T06:00:41.295Z,2.72
2022-12-06T06:03:08.808Z,2.75
2022-12-06T06:05:36.377Z,2.73
2022-12-06T06:08:04.058Z,2.73
2022-12-06T06:10:31.450Z,2.63
2022-12-06T06:12:58.754Z,3.09
2022-12-06T06:15:26.208Z,3.10
2022-12-06T06:17:53.651Z,3.02
2022-12-06T06:20:21.117Z,2.89
2022-12-06T06:22:48.446Z,2.89
2022-12-06T06:25:15.842Z,3.02
2022-12-06T06:27:43.166Z,2.93
2022-12-06T06:30:12.129Z,2.94
2022-12-06T06:32:39.514Z,2.85
2022-12-06T06:35:07.595Z,3.06
2022-12-06T06:37:35.220Z,2.91
2022-12-06T06:40:03.084Z,2.66
2022-12-06T06:42:30.716Z,2.54
2022-12-06T06:44:58.024Z,2.46
2022-12-06T06:47:25.705Z,2.69
2022-12-06T06:49:53.034Z,2.58
2022-12-06T06:52:20.346Z,2.52
2022-12-06T06:54:47.649Z,2.54
2022-12-06T06:57:17.843Z,2.85
2022-12-06T06:59:45.990Z,2.91
2022-12-06T07:02:14.892Z,2.96
2022-12-06T07:04:42.437Z,3.05
2022-12-06T07:07:09.878Z,3.06
2022-12-06T07:09:38.156Z,2.99
2022-12-06T07:12:05.608Z,3.09
2022-12-06T07:14:33.200Z,3.30
2022-12-06T07:17:00.682Z,3.31
2022-12-06T07:19:28.038Z,3.28
2022-12-06T07:21:55.502Z,3.28
2022-12-06T07:24:22.880Z,3.23
2022-12-06T07:26:50.185Z,3.16
2022-12-06T07:29:18.675Z,3.21
2022-12-06T07:31:46.011Z,3.11
2022-12-06T07:34:13.290Z,3.11
2022-12-06T07:36:40.669Z,3.23
2022-12-06T07:39:14.272Z,3.33
2022-12-06T07:42:00.887Z,3.33
2022-12-06T07:45:01.890Z,3.47
2022-12-06T07:47:41.559Z,3.68
2022-12-06T07:50:17.609Z,3.48
2022-12-06T07:52:47.334Z,3.44
2022-12-06T07:55:15.868Z,3.61
2022-12-06T07:57:44.226Z,3.39
2022-12-06T08:00:14.437Z,3.38
2022-12-06T08:02:42.639Z,3.87
2022-12-06T08:05:10.754Z,4.01
2022-12-06T08:07:38.755Z,4.01
2022-12-06T08:10:06.856Z,4.05
2022-12-06T08:12:34.335Z,3.95
2022-12-06T08:15:01.766Z,4.13
2022-12-06T08:17:30.488Z,4.19
2022-12-06T08:19:58.145Z,3.99
2022-12-06T08:22:25.763Z,4.33
2022-12-06T08:24:53.199Z,3.99
2022-12-06T08:27:20.617Z,3.87
2022-12-06T08:29:47.920Z,3.91
2022-12-06T08:32:15.230Z,3.77
2022-12-06T08:34:43.817Z,3.62
2022-12-06T08:37:12.547Z,3.57
2022-12-06T08:39:39.859Z,3.66
2022-12-06T08:42:08.097Z,3.53
2022-12-06T08:44:36.460Z,3.61
2022-12-06T08:47:04.646Z,3.62
2022-12-06T08:49:32.147Z,3.69
2022-12-06T08:52:00.283Z,3.66
2022-12-06T08:54:28.230Z,3.62
2022-12-06T08:56:55.999Z,3.56
2022-12-06T08:59:24.130Z,3.62
2022-12-06T09:01:51.741Z,3.51
2022-12-06T09:04:19.225Z,3.50
2022-12-06T09:06:46.922Z,3.60
2022-12-06T09:09:16.386Z,3.62
2022-12-06T09:11:45.218Z,3.74
2022-12-06T09:14:21.056Z,3.89
2022-12-06T09:16:52.413Z,4.34
2022-12-06T09:19:20.821Z,4.52
2022-12-06T09:21:48.232Z,4.43
2022-12-06T09:24:17.442Z,4.35
2022-12-06T09:26:44.978Z,3.94
2022-12-06T09:29:13.020Z,4.68
2022-12-06T09:31:41.019Z,4.87
2022-12-06T09:34:09.370Z,5.01
2022-12-06T09:36:44.903Z,4.91
2022-12-06T09:39:18.648Z,4.84
2022-12-06T09:42:23.212Z,4.88
2022-12-06T09:45:10.779Z,4.76
2022-12-06T09:48:08.183Z,4.64
2022-12-06T09:51:00.107Z,4.97
2022-12-06T09:53:42.637Z,5.11
2022-12-06T09:56:26.398Z,4.92
2022-12-06T09:59:03.380Z,4.95
2022-12-06T10:01:53.811Z,4.92
2022-12-06T10:04:39.694Z,4.57
2022-12-06T10:07:19.451Z,5.06
2022-12-06T10:10:10.202Z,5.23
2022-12-06T10:12:50.074Z,5.37
2022-12-06T10:15:46.939Z,5.38
2022-12-06T10:18:23.417Z,5.03
2022-12-06T10:21:08.764Z,5.58
2022-12-06T10:23:44.842Z,6.22
2022-12-06T10:26:24.524Z,6.52
2022-12-06T10:28:57.857Z,6.63
2022-12-06T10:31:32.536Z,6.68
2022-12-06T10:34:14.836Z,6.50
2022-12-06T10:36:53.506Z,6.39
2022-12-06T10:39:40.741Z,6.44
2022-12-06T10:42:21.809Z,6.49
2022-12-06T10:44:57.032Z,6.58
2022-12-06T10:47:33.856Z,6.75
2022-12-06T10:50:14.383Z,6.89
2022-12-06T10:52:50.828Z,6.30
2022-12-06T10:55:26.375Z,6.88
2022-12-06T10:57:59.773Z,6.50
2022-12-06T11:00:30.744Z,6.82
2022-12-06T11:03:11.550Z,6.57
2022-12-06T11:05:44.280Z,6.51
2022-12-06T11:08:24.174Z,6.80
2022-12-06T11:10:52.131Z,7.04
2022-12-06T11:13:24.166Z,7.06
2022-12-06T11:15:57.621Z,6.74
2022-12-06T11:18:29.650Z,6.57
2022-12-06T11:21:00.648Z,6.61
2022-12-06T11:23:36.655Z,6.73
2022-12-06T11:26:51.559Z,6.69
2022-12-06T11:29:19.486Z,6.74
2022-12-06T11:31:53.660Z,6.70
2022-12-06T11:34:31.133Z,6.61
2022-12-06T11:37:00.571Z,6.49
2022-12-06T11:39:29.739Z,6.44
2022-12-06T11:42:00.685Z,6.51
2022-12-06T11:44:49.902Z,6.62
2022-12-06T11:47:21.910Z,6.85
2022-12-06T11:49:52.524Z,6.57
2022-12-06T11:52:28.054Z,6.80
2022-12-06T11:55:02.015Z,6.83
2022-12-06T11:57:38.662Z,6.70
2022-12-06T12:00:14.201Z,6.87
2022-12-06T12:02:43.786Z,7.05
2022-12-06T12:05:20.749Z,6.85
2022-12-06T12:08:18.233Z,7.40
2022-12-06T12:10:57.102Z,7.54
2022-12-06T12:13:43.238Z,7.65
2022-12-06T12:16:16.784Z,7.82
2022-12-06T12:19:00.452Z,7.87
2022-12-06T12:21:40.037Z,7.91
2022-12-06T12:25:03.309Z,7.79
2022-12-06T12:27:38.826Z,7.89
2022-12-06T12:30:15.478Z,8.18
2022-12-06T12:32:44.849Z,7.76
2022-12-06T12:35:43.159Z,7.70
2022-12-06T12:38:10.539Z,7.58
2022-12-06T12:40:45.563Z,7.42
2022-12-06T12:43:12.785Z,7.21
2022-12-06T12:46:02.770Z,7.02
2022-12-06T12:48:30.796Z,6.88
2022-12-06T12:51:02.741Z,7.01
2022-12-06T12:53:32.693Z,7.22
2022-12-06T12:56:13.429Z,7.23
2022-12-06T12:58:42.888Z,7.08
2022-12-06T13:01:25.481Z,7.08
2022-12-06T13:04:04.973Z,7.12
2022-12-06T13:06:54.771Z,7.16
2022-12-06T13:09:27.035Z,7.23
2022-12-06T13:12:01.841Z,7.02
2022-12-06T13:14:30.583Z,7.16
2022-12-06T13:17:03.692Z,7.00
2022-12-06T13:19:40.791Z,7.09
2022-12-06T13:22:16.546Z,6.98
2022-12-06T13:24:45.457Z,6.97
2022-12-06T13:27:16.785Z,6.89
2022-12-06T13:30:17.256Z,6.97
2022-12-06T13:32:50.562Z,7.09
2022-12-06T13:35:35.014Z,6.80
2022-12-06T13:38:26.677Z,6.72
2022-12-06T13:40:56.922Z,7.07
2022-12-06T13:43:24.185Z,7.17
2022-12-06T13:46:26.440Z,7.12
2022-12-06T13:48:58.072Z,7.09
2022-12-06T13:51:31.685Z,6.98
2022-12-06T13:54:05.304Z,7.07
2022-12-06T13:56:32.702Z,7.11
2022-12-06T13:59:15.902Z,7.02
2022-12-06T14:01:46.443Z,6.69
2022-12-06T14:07:02.808Z,6.85
2022-12-06T14:09:38.061Z,6.65
2022-12-06T14:12:26.505Z,6.64
2022-12-06T14:15:02.239Z,6.76
2022-12-06T14:20:30.482Z,6.45
2022-12-06T14:22:58.501Z,6.29
2022-12-06T14:25:28.747Z,6.24
2022-12-06T14:28:06.446Z,6.01
2022-12-06T14:30:34.350Z,5.75
2022-12-06T14:33:01.828Z,5.86
2022-12-06T14:35:36.195Z,5.43
2022-12-06T14:38:21.201Z,5.66
2022-12-06T14:41:07.749Z,5.50
2022-12-06T14:43:35.558Z,5.23
2022-12-06T14:46:06.327Z,5.08
2022-12-06T14:48:53.095Z,5.05
2022-12-06T14:51:34.678Z,4.74
2022-12-06T14:54:26.999Z,4.47
2022-12-06T14:56:54.342Z,4.17
2022-12-06T15:00:03.026Z,4.42
2022-12-06T15:02:27.160Z,4.62
2022-12-06T15:04:55.013Z,4.33
2022-12-06T15:07:40.967Z,4.34
2022-12-06T15:10:09.735Z,4.11
2022-12-06T15:12:55.495Z,3.74
2022-12-06T15:15:39.576Z,3.41
2022-12-06T15:18:16.082Z,3.30
2022-12-06T15:20:43.383Z,2.91
2022-12-06T15:23:28.949Z,2.87
2022-12-06T15:25:56.550Z,2.59
2022-12-06T15:28:24.238Z,2.56
2022-12-06T15:30:51.866Z,2.31
2022-12-06T15:33:22.954Z,2.60
2022-12-06T15:35:51.116Z,2.20
2022-12-06T15:38:18.557Z,1.94
2022-12-06T15:40:49.491Z,2.20
2022-12-06T15:43:25.119Z,2.17
2022-12-06T15:45:53.994Z,2.00
2022-12-06T15:48:21.328Z,1.86
2022-12-06T15:50:49.112Z,1.91
2022-12-06T15:53:19.470Z,1.66
2022-12-06T15:55:46.878Z,1.66
2022-12-06T15:58:14.203Z,1.43
2022-12-06T16:00:41.521Z,1.43
2022-12-06T16:03:09.032Z,1.26
2022-12-06T16:05:36.314Z,1.22
2022-12-06T16:08:04.012Z,1.19
2022-12-06T16:11:03.067Z,1.22
2022-12-06T16:13:21.642Z,1.49
2022-12-06T16:15:50.790Z,1.42
2022-12-06T16:18:18.279Z,1.31
2022-12-06T16:20:45.829Z,1.44
2022-12-06T16:24:04.604Z,1.29
2022-12-06T16:26:24.158Z,1.10
2022-12-06T16:28:51.510Z,1.05
2022-12-06T16:31:18.933Z,1.04
2022-12-06T16:33:46.320Z,1.06
2022-12-06T16:36:31.310Z,1.57
2022-12-06T16:39:02.224Z,1.50
2022-12-06T16:41:33.291Z,1.78
2022-12-06T16:44:01.323Z,1.39
2022-12-06T16:46:34.399Z,1.42
2022-12-06T16:49:36.692Z,1.12
2022-12-06T16:51:51.935Z,0.40
2022-12-06T16:54:19.474Z,0.06
2022-12-06T16:56:46.817Z,-0.17
2022-12-06T16:59:15.818Z,0.27
2022-12-06T17:01:50.961Z,0.25
2022-12-06T17:04:18.755Z,0.03
2022-12-06T17:06:47.048Z,0.07
2022-12-06T17:09:14.900Z,0.07
2022-12-06T17:12:00.933Z,-0.02
2022-12-06T17:14:28.485Z,-0.02
2022-12-06T17:16:57.021Z,0.03
2022-12-06T17:19:28.213Z,-0.10
2022-12-06T17:21:55.944Z,-0.19
2022-12-06T17:24:25.937Z,-0.21
2022-12-06T17:26:56.676Z,-0.19
2022-12-06T17:29:24.033Z,-0.45
2022-12-06T17:31:52.270Z,-0.54
2022-12-06T17:34:20.331Z,-0.38
2022-12-06T17:36:49.032Z,-0.16
2022-12-06T17:39:18.618Z,0.27
2022-12-06T17:42:05.162Z,0.39
2022-12-06T17:44:34.010Z,0.16
2022-12-06T17:47:02.051Z,-0.10
2022-12-06T17:49:29.551Z,-0.14
2022-12-06T17:51:57.245Z,0.12
2022-12-06T17:54:24.841Z,0.04
2022-12-06T17:56:53.898Z,-0.19
2022-12-06T17:59:23.444Z,-0.45
2022-12-06T18:02:14.818Z,-0.61
2022-12-06T18:04:39.550Z,-0.79
2022-12-06T18:07:07.305Z,-0.95
2022-12-06T18:09:34.669Z,-1.09
2022-12-06T18:12:02.396Z,-0.83
2022-12-06T18:14:29.779Z,-0.85
2022-12-06T18:16:57.219Z,-0.81
2022-12-06T18:19:24.540Z,-0.88
2022-12-06T18:21:53.169Z,-0.52
2022-12-06T18:24:23.873Z,-0.49
2022-12-06T18:35:41.998Z,-1.37
2022-12-06T18:59:27.606Z,-0.99
2022-12-06T19:01:56.001Z,-0.88
2022-12-06T19:04:23.382Z,-0.79
2022-12-06T19:06:50.754Z,-0.79
2022-12-06T19:09:18.689Z,-0.73
2022-12-06T19:11:46.528Z,-0.74
2022-12-06T19:14:14.865Z,-0.89
2022-12-06T19:16:45.546Z,-1.08
2022-12-06T19:19:18.952Z,-1.32
2022-12-06T19:21:47.519Z,-1.31
2022-12-06T19:24:18.117Z,-1.28
2022-12-06T19:26:45.544Z,-1.18
2022-12-06T19:29:15.554Z,-1.15
2022-12-06T19:31:43.375Z,-1.35
2022-12-06T19:34:19.509Z,-1.39
2022-12-06T19:36:48.350Z,-1.50
2022-12-06T19:39:16.293Z,-1.47
2022-12-06T19:42:02.811Z,-1.48
2022-12-06T19:44:30.764Z,-1.49
2022-12-06T19:46:58.187Z,-1.57
2022-12-06T19:49:26.740Z,-1.48
2022-12-06T19:51:54.326Z,-1.47
2022-12-06T19:54:24.890Z,-1.50
2022-12-06T19:56:54.472Z,-1.64
2022-12-06T19:59:22.948Z,-1.86
2022-12-06T20:01:52.748Z,-1.78
2022-12-06T20:04:49.282Z,-1.55
2022-12-06T20:07:16.663Z,-1.46
2022-12-06T20:09:44.233Z,-1.55
2022-12-06T20:12:13.199Z,-1.71
2022-12-06T20:14:46.061Z,-1.56
2022-12-06T20:17:16.498Z,-1.77
2022-12-06T20:19:46.172Z,-1.08
2022-12-06T20:22:14.601Z,-1.14
2022-12-06T20:24:42.374Z,-1.32
2022-12-06T20:27:10.111Z,-1.29
2022-12-06T20:29:37.659Z,-1.69
2022-12-06T20:32:05.706Z,-1.64
2022-12-06T20:34:34.923Z,-1.67
2022-12-06T20:37:04.693Z,-1.24
2022-12-06T20:39:36.429Z,-1.65
2022-12-06T20:42:06.899Z,-1.75
2022-12-06T20:44:35.233Z,-1.57
2022-12-06T20:47:02.863Z,-1.54
2022-12-06T20:49:30.236Z,-1.73
2022-12-06T20:51:59.637Z,-1.87
2022-12-06T20:54:26.916Z,-1.77
2022-12-06T20:56:54.225Z,-1.82
2022-12-06T20:59:21.592Z,-1.73
2022-12-06T21:01:49.369Z,-1.48
2022-12-06T21:04:17.491Z,-1.50
2022-12-06T21:06:44.886Z,-1.71
2022-12-06T21:09:12.284Z,-1.72
2022-12-06T21:11:39.600Z,-1.84
2022-12-06T21:14:06.919Z,-1.27
2022-12-06T21:16:35.238Z,-1.26
2022-12-06T21:19:09.334Z,-1.51
2022-12-06T21:21:39.880Z,-1.76
2022-12-06T21:24:11.393Z,-1.63
2022-12-06T21:26:38.933Z,-1.47
2022-12-06T21:29:06.749Z,-1.62
2022-12-06T21:31:36.858Z,-1.74
2022-12-06T21:34:05.518Z,-1.78
2022-12-06T21:36:33.338Z,-1.72
2022-12-06T21:39:00.954Z,-1.49
2022-12-06T21:41:28.351Z,-1.52
2022-12-06T21:43:55.731Z,-1.51
2022-12-06T21:46:26.473Z,-1.70
2022-12-06T21:48:59.499Z,-1.68
2022-12-06T21:51:29.206Z,-1.76
2022-12-06T21:53:57.460Z,-1.76
2022-12-06T21:56:27.362Z,-1.85
2022-12-06T21:58:54.835Z,-2.07
2022-12-06T22:01:25.046Z,-2.17
2022-12-06T22:03:54.535Z,-2.19
2022-12-06T22:06:22.577Z,-2.35
2022-12-06T22:08:57.689Z,-2.29
2022-12-06T22:11:25.290Z,-2.31
2022-12-06T22:13:52.586Z,-2.31
2022-12-06T22:16:19.977Z,-2.31
2022-12-06T22:18:47.507Z,-2.33
2022-12-06T22:21:18.110Z,-2.62
2022-12-06T22:23:46.333Z,-2.34
2022-12-06T22:26:18.901Z,-2.23
2022-12-06T22:28:47.606Z,-2.31
2022-12-06T22:31:21.122Z,-2.43
2022-12-06T22:33:49.607Z,-2.35
2022-12-06T22:36:18.115Z,-2.44
2022-12-06T22:38:49.756Z,-2.12
2022-12-06T22:41:17.677Z,-1.73
2022-12-06T22:43:45.683Z,-1.73
2022-12-06T22:46:15.512Z,-1.74
2022-12-06T22:48:43.165Z,-2.06
2022-12-06T22:51:20.735Z,-2.10
2022-12-06T22:53:52.840Z,-2.29
2022-12-06T22:56:20.370Z,-2.26
2022-12-06T22:58:50.691Z,-2.27
2022-12-06T23:01:20.461Z,-2.31
2022-12-06T23:03:50.374Z,-2.57
2022-12-06T23:06:18.514Z,-2.71
2022-12-06T23:08:46.491Z,-2.81
2022-12-06T23:11:28.992Z,-2.98
2022-12-06T23:13:57.464Z,-2.87
2022-12-06T23:16:29.767Z,-2.98
2022-12-06T23:18:58.850Z,-2.98
2022-12-06T23:21:29.482Z,-3.01
2022-12-06T23:24:05.994Z,-3.28
2022-12-06T23:26:51.821Z,-3.01
2022-12-06T23:29:22.047Z,-2.92
2022-12-06T23:31:49.556Z,-3.23
2022-12-06T23:34:26.708Z,-2.92
2022-12-06T23:36:54.857Z,-2.68
2022-12-06T23:39:22.207Z,-2.75
2022-12-06T23:41:49.879Z,-2.90
2022-12-06T23:44:17.201Z,-2.97
2022-12-06T23:46:45.821Z,-3.22
2022-12-06T23:49:19.343Z,-3.03
2022-12-06T23:51:47.538Z,-3.05
2022-12-06T23:54:17.039Z,-3.34
2022-12-06T23:56:44.773Z,-3.24
2022-12-06T23:59:14.664Z,-3.27
